sensor_id;sensor_type;location;lat;lon;timestamp;temperature;humidity
31207;DHT22;17834;52.992;8.856;2023-06-22T00:01:06;16.10;99.90
31207;DHT22;17834;52.992;8.856;2023-06-22T00:03:31;16.10;99.90
31207;DHT22;17834;52.992;8.856;2023-06-22T00:05:57;16.10;99.90
31207;DHT22;17834;52.992;8.856;2023-06-22T00:08:22;16.10;99.90
31207;DHT22;17834;52.992;8.856;2023-06-22T00:10:48;16.10;99.90
31207;DHT22;17834;52.992;8.856;2023-06-22T00:13:14;16.10;99.90
31207;DHT22;17834;52.992;8.856;2023-06-22T00:15:41;16.10;99.90
31207;DHT22;17834;52.992;8.856;2023-06-22T00:18:07;16.00;99.90
31207;DHT22;17834;52.992;8.856;2023-06-22T00:20:33;16.10;99.90
31207;DHT22;17834;52.992;8.856;2023-06-22T00:22:59;16.00;99.90
31207;DHT22;17834;52.992;8.856;2023-06-22T00:25:25;16.10;99.90
31207;DHT22;17834;52.992;8.856;2023-06-22T00:27:51;16.00;99.90
31207;DHT22;17834;52.992;8.856;2023-06-22T00:30:17;16.10;99.90
31207;DHT22;17834;52.992;8.856;2023-06-22T00:32:43;16.10;99.90
31207;DHT22;17834;52.992;8.856;2023-06-22T00:35:09;16.00;99.90
31207;DHT22;17834;52.992;8.856;2023-06-22T00:37:36;16.00;99.90
31207;DHT22;17834;52.992;8.856;2023-06-22T00:40:02;16.00;99.90
31207;DHT22;17834;52.992;8.856;2023-06-22T00:42:29;16.00;99.90
31207;DHT22;17834;52.992;8.856;2023-06-22T00:44:54;16.00;99.90
31207;DHT22;17834;52.992;8.856;2023-06-22T00:47:20;16.00;99.90
31207;DHT22;17834;52.992;8.856;2023-06-22T00:49:47;15.90;99.90
31207;DHT22;17834;52.992;8.856;2023-06-22T00:52:14;15.90;99.90
31207;DHT22;17834;52.992;8.856;2023-06-22T00:54:47;15.90;99.90
31207;DHT22;17834;52.992;8.856;2023-06-22T00:57:14;15.90;99.90
31207;DHT22;17834;52.992;8.856;2023-06-22T00:59:44;15.90;99.90
31207;DHT22;17834;52.992;8.856;2023-06-22T01:02:10;15.90;99.90
31207;DHT22;17834;52.992;8.856;2023-06-22T01:04:37;15.80;99.90
31207;DHT22;17834;52.992;8.856;2023-06-22T01:09:36;15.80;99.90
31207;DHT22;17834;52.992;8.856;2023-06-22T01:12:07;15.80;99.90
31207;DHT22;17834;52.992;8.856;2023-06-22T01:14:46;15.70;99.90
31207;DHT22;17834;52.992;8.856;2023-06-22T01:17:15;15.70;99.90
31207;DHT22;17834;52.992;8.856;2023-06-22T01:19:47;15.70;99.90
31207;DHT22;17834;52.992;8.856;2023-06-22T01:22:16;15.60;99.90
31207;DHT22;17834;52.992;8.856;2023-06-22T01:25:08;15.60;99.90
31207;DHT22;17834;52.992;8.856;2023-06-22T01:30:07;15.50;99.90
31207;DHT22;17834;52.992;8.856;2023-06-22T01:32:36;15.50;99.90
31207;DHT22;17834;52.992;8.856;2023-06-22T01:35:05;15.50;99.90
31207;DHT22;17834;52.992;8.856;2023-06-22T01:37:33;15.40;99.90
31207;DHT22;17834;52.992;8.856;2023-06-22T01:40:00;15.40;99.90
31207;DHT22;17834;52.992;8.856;2023-06-22T01:42:25;15.30;99.90
31207;DHT22;17834;52.992;8.856;2023-06-22T01:44:54;15.30;99.90
31207;DHT22;17834;52.992;8.856;2023-06-22T01:47:22;15.20;99.90
31207;DHT22;17834;52.992;8.856;2023-06-22T01:49:48;15.20;99.90
31207;DHT22;17834;52.992;8.856;2023-06-22T01:52:15;15.10;99.90
31207;DHT22;17834;52.992;8.856;2023-06-22T01:54:41;15.20;99.90
31207;DHT22;17834;52.992;8.856;2023-06-22T01:57:06;15.10;99.90
31207;DHT22;17834;52.992;8.856;2023-06-22T01:59:36;15.10;99.90
31207;DHT22;17834;52.992;8.856;2023-06-22T02:02:07;15.00;99.90
31207;DHT22;17834;52.992;8.856;2023-06-22T02:04:37;15.00;99.90
31207;DHT22;17834;52.992;8.856;2023-06-22T02:07:12;14.90;99.90
31207;DHT22;17834;52.992;8.856;2023-06-22T02:09:45;14.90;99.90
31207;DHT22;17834;52.992;8.856;2023-06-22T02:12:13;14.90;99.90
31207;DHT22;17834;52.992;8.856;2023-06-22T02:14:42;14.90;99.90
31207;DHT22;17834;52.992;8.856;2023-06-22T02:17:09;14.90;99.90
31207;DHT22;17834;52.992;8.856;2023-06-22T02:19:39;14.80;99.90
31207;DHT22;17834;52.992;8.856;2023-06-22T02:22:06;14.80;99.90
31207;DHT22;17834;52.992;8.856;2023-06-22T02:24:31;14.80;99.90
31207;DHT22;17834;52.992;8.856;2023-06-22T02:26:59;14.80;99.90
31207;DHT22;17834;52.992;8.856;2023-06-22T02:29:25;14.70;99.90
31207;DHT22;17834;52.992;8.856;2023-06-22T02:31:50;14.70;99.90
31207;DHT22;17834;52.992;8.856;2023-06-22T02:34:16;14.70;99.90
31207;DHT22;17834;52.992;8.856;2023-06-22T02:36:46;14.70;99.90
31207;DHT22;17834;52.992;8.856;2023-06-22T02:41:42;14.60;99.90
31207;DHT22;17834;52.992;8.856;2023-06-22T02:44:08;14.60;99.90
31207;DHT22;17834;52.992;8.856;2023-06-22T02:46:33;14.60;99.90
31207;DHT22;17834;52.992;8.856;2023-06-22T02:48:59;14.60;99.90
31207;DHT22;17834;52.992;8.856;2023-06-22T02:51:24;14.60;99.90
31207;DHT22;17834;52.992;8.856;2023-06-22T02:53:50;14.70;99.90
31207;DHT22;17834;52.992;8.856;2023-06-22T02:56:17;14.60;99.90
31207;DHT22;17834;52.992;8.856;2023-06-22T02:58:42;14.60;99.90
31207;DHT22;17834;52.992;8.856;2023-06-22T03:01:08;14.60;99.90
31207;DHT22;17834;52.992;8.856;2023-06-22T03:03:35;14.60;99.90
31207;DHT22;17834;52.992;8.856;2023-06-22T03:06:00;14.60;99.90
31207;DHT22;17834;52.992;8.856;2023-06-22T03:08:27;14.60;99.90
31207;DHT22;17834;52.992;8.856;2023-06-22T03:10:52;14.70;99.90
31207;DHT22;17834;52.992;8.856;2023-06-22T03:13:18;14.70;99.90
31207;DHT22;17834;52.992;8.856;2023-06-22T03:15:43;14.80;99.90
31207;DHT22;17834;52.992;8.856;2023-06-22T03:18:09;14.80;99.90
31207;DHT22;17834;52.992;8.856;2023-06-22T03:20:34;14.80;99.90
31207;DHT22;17834;52.992;8.856;2023-06-22T03:23:00;14.90;99.90
31207;DHT22;17834;52.992;8.856;2023-06-22T03:25:25;14.90;99.90
31207;DHT22;17834;52.992;8.856;2023-06-22T03:27:51;15.00;99.90
31207;DHT22;17834;52.992;8.856;2023-06-22T03:30:16;15.00;99.90
31207;DHT22;17834;52.992;8.856;2023-06-22T03:32:42;15.10;99.90
31207;DHT22;17834;52.992;8.856;2023-06-22T03:35:08;15.10;99.90
31207;DHT22;17834;52.992;8.856;2023-06-22T03:37:34;15.20;99.90
31207;DHT22;17834;52.992;8.856;2023-06-22T03:39:59;15.20;99.90
31207;DHT22;17834;52.992;8.856;2023-06-22T03:42:26;15.30;99.90
31207;DHT22;17834;52.992;8.856;2023-06-22T03:44:52;15.40;99.90
31207;DHT22;17834;52.992;8.856;2023-06-22T03:47:17;15.50;99.90
31207;DHT22;17834;52.992;8.856;2023-06-22T03:49:43;15.50;99.90
31207;DHT22;17834;52.992;8.856;2023-06-22T03:52:08;15.60;99.90
31207;DHT22;17834;52.992;8.856;2023-06-22T03:54:34;15.60;99.90
31207;DHT22;17834;52.992;8.856;2023-06-22T03:57:00;15.70;99.90
31207;DHT22;17834;52.992;8.856;2023-06-22T03:59:26;15.80;99.90
31207;DHT22;17834;52.992;8.856;2023-06-22T04:01:51;15.80;99.90
31207;DHT22;17834;52.992;8.856;2023-06-22T04:04:18;16.00;99.90
31207;DHT22;17834;52.992;8.856;2023-06-22T04:06:43;16.00;99.90
31207;DHT22;17834;52.992;8.856;2023-06-22T04:09:09;16.10;99.90
31207;DHT22;17834;52.992;8.856;2023-06-22T04:11:34;16.20;99.90
31207;DHT22;17834;52.992;8.856;2023-06-22T04:14:00;16.30;99.90
31207;DHT22;17834;52.992;8.856;2023-06-22T04:16:25;16.40;99.90
31207;DHT22;17834;52.992;8.856;2023-06-22T04:18:51;16.60;99.90
31207;DHT22;17834;52.992;8.856;2023-06-22T04:21:16;16.70;99.90
31207;DHT22;17834;52.992;8.856;2023-06-22T04:23:42;16.80;99.90
31207;DHT22;17834;52.992;8.856;2023-06-22T04:26:08;16.90;99.90
31207;DHT22;17834;52.992;8.856;2023-06-22T04:28:34;17.10;99.90
31207;DHT22;17834;52.992;8.856;2023-06-22T04:31:03;17.20;99.90
31207;DHT22;17834;52.992;8.856;2023-06-22T04:33:28;17.40;99.90
31207;DHT22;17834;52.992;8.856;2023-06-22T04:35:55;17.50;99.90
31207;DHT22;17834;52.992;8.856;2023-06-22T04:38:22;17.70;99.90
31207;DHT22;17834;52.992;8.856;2023-06-22T04:40:48;17.70;99.90
31207;DHT22;17834;52.992;8.856;2023-06-22T04:43:13;17.80;99.90
31207;DHT22;17834;52.992;8.856;2023-06-22T04:45:39;18.00;99.90
31207;DHT22;17834;52.992;8.856;2023-06-22T04:48:05;18.00;99.90
31207;DHT22;17834;52.992;8.856;2023-06-22T04:50:30;18.20;99.90
31207;DHT22;17834;52.992;8.856;2023-06-22T04:52:56;18.30;99.90
31207;DHT22;17834;52.992;8.856;2023-06-22T04:55:21;18.50;99.90
31207;DHT22;17834;52.992;8.856;2023-06-22T04:57:48;18.70;99.90
31207;DHT22;17834;52.992;8.856;2023-06-22T05:00:17;19.00;99.90
31207;DHT22;17834;52.992;8.856;2023-06-22T05:02:45;19.40;99.90
31207;DHT22;17834;52.992;8.856;2023-06-22T05:05:12;19.80;99.90
31207;DHT22;17834;52.992;8.856;2023-06-22T05:07:45;19.90;99.90
31207;DHT22;17834;52.992;8.856;2023-06-22T05:10:13;20.00;99.90
31207;DHT22;17834;52.992;8.856;2023-06-22T05:12:39;20.00;99.90
31207;DHT22;17834;52.992;8.856;2023-06-22T05:15:09;20.00;99.90
31207;DHT22;17834;52.992;8.856;2023-06-22T05:17:36;20.10;99.90
31207;DHT22;17834;52.992;8.856;2023-06-22T05:20:02;20.30;99.90
31207;DHT22;17834;52.992;8.856;2023-06-22T05:22:29;20.50;99.90
31207;DHT22;17834;52.992;8.856;2023-06-22T05:24:55;20.70;99.90
31207;DHT22;17834;52.992;8.856;2023-06-22T05:27:20;21.00;99.90
31207;DHT22;17834;52.992;8.856;2023-06-22T05:29:46;21.20;99.90
31207;DHT22;17834;52.992;8.856;2023-06-22T05:32:11;21.40;99.90
31207;DHT22;17834;52.992;8.856;2023-06-22T05:34:37;21.50;99.90
31207;DHT22;17834;52.992;8.856;2023-06-22T05:37:03;21.60;99.90
31207;DHT22;17834;52.992;8.856;2023-06-22T05:39:29;21.50;99.90
31207;DHT22;17834;52.992;8.856;2023-06-22T05:41:54;21.60;99.90
31207;DHT22;17834;52.992;8.856;2023-06-22T05:44:20;21.60;99.90
31207;DHT22;17834;52.992;8.856;2023-06-22T05:46:45;21.90;99.90
31207;DHT22;17834;52.992;8.856;2023-06-22T05:49:14;22.50;99.90
31207;DHT22;17834;52.992;8.856;2023-06-22T05:51:40;23.60;99.90
31207;DHT22;17834;52.992;8.856;2023-06-22T05:54:06;25.00;99.90
31207;DHT22;17834;52.992;8.856;2023-06-22T05:56:34;26.10;99.90
31207;DHT22;17834;52.992;8.856;2023-06-22T05:58:59;27.30;99.90
31207;DHT22;17834;52.992;8.856;2023-06-22T06:01:25;28.50;94.90
31207;DHT22;17834;52.992;8.856;2023-06-22T06:03:51;29.10;89.00
31207;DHT22;17834;52.992;8.856;2023-06-22T06:06:18;30.30;81.70
31207;DHT22;17834;52.992;8.856;2023-06-22T06:08:46;31.00;71.90
31207;DHT22;17834;52.992;8.856;2023-06-22T06:11:12;31.80;68.00
31207;DHT22;17834;52.992;8.856;2023-06-22T06:13:37;32.70;65.50
31207;DHT22;17834;52.992;8.856;2023-06-22T06:16:03;33.60;61.20
31207;DHT22;17834;52.992;8.856;2023-06-22T06:18:29;34.30;58.90
31207;DHT22;17834;52.992;8.856;2023-06-22T06:20:54;34.00;55.90
31207;DHT22;17834;52.992;8.856;2023-06-22T06:23:20;33.30;56.20
31207;DHT22;17834;52.992;8.856;2023-06-22T06:25:45;32.30;57.60
31207;DHT22;17834;52.992;8.856;2023-06-22T06:28:11;31.10;59.10
31207;DHT22;17834;52.992;8.856;2023-06-22T06:30:36;29.80;60.30
31207;DHT22;17834;52.992;8.856;2023-06-22T06:33:02;29.20;62.50
31207;DHT22;17834;52.992;8.856;2023-06-22T06:35:28;28.70;64.80
31207;DHT22;17834;52.992;8.856;2023-06-22T06:37:53;28.70;65.60
31207;DHT22;17834;52.992;8.856;2023-06-22T06:40:19;28.50;66.20
31207;DHT22;17834;52.992;8.856;2023-06-22T06:42:47;28.70;66.00
31207;DHT22;17834;52.992;8.856;2023-06-22T06:45:16;29.00;66.00
31207;DHT22;17834;52.992;8.856;2023-06-22T06:47:42;29.40;65.00
31207;DHT22;17834;52.992;8.856;2023-06-22T06:50:08;29.70;65.00
31207;DHT22;17834;52.992;8.856;2023-06-22T06:52:34;30.20;63.80
31207;DHT22;17834;52.992;8.856;2023-06-22T06:55:00;30.80;62.30
31207;DHT22;17834;52.992;8.856;2023-06-22T06:57:25;30.90;60.50
31207;DHT22;17834;52.992;8.856;2023-06-22T06:59:55;31.70;61.10
31207;DHT22;17834;52.992;8.856;2023-06-22T07:02:21;32.20;58.50
31207;DHT22;17834;52.992;8.856;2023-06-22T07:04:47;32.50;57.90
31207;DHT22;17834;52.992;8.856;2023-06-22T07:07:13;33.00;57.30
31207;DHT22;17834;52.992;8.856;2023-06-22T07:09:38;33.50;56.70
31207;DHT22;17834;52.992;8.856;2023-06-22T07:12:04;33.30;55.60
31207;DHT22;17834;52.992;8.856;2023-06-22T07:14:30;33.10;55.30
31207;DHT22;17834;52.992;8.856;2023-06-22T07:16:57;33.00;56.00
31207;DHT22;17834;52.992;8.856;2023-06-22T07:19:26;33.00;55.90
31207;DHT22;17834;52.992;8.856;2023-06-22T07:21:52;33.40;55.90
31207;DHT22;17834;52.992;8.856;2023-06-22T07:24:19;33.50;55.40
31207;DHT22;17834;52.992;8.856;2023-06-22T07:26:46;33.30;55.50
31207;DHT22;17834;52.992;8.856;2023-06-22T07:29:11;33.00;54.20
31207;DHT22;17834;52.992;8.856;2023-06-22T07:31:37;33.10;55.00
31207;DHT22;17834;52.992;8.856;2023-06-22T07:34:02;33.40;55.30
31207;DHT22;17834;52.992;8.856;2023-06-22T07:36:29;33.90;55.20
31207;DHT22;17834;52.992;8.856;2023-06-22T07:38:55;34.40;54.00
31207;DHT22;17834;52.992;8.856;2023-06-22T07:41:21;34.10;53.50
31207;DHT22;17834;52.992;8.856;2023-06-22T07:43:46;33.80;52.60
31207;DHT22;17834;52.992;8.856;2023-06-22T07:46:12;33.60;53.30
31207;DHT22;17834;52.992;8.856;2023-06-22T07:48:38;33.60;53.70
31207;DHT22;17834;52.992;8.856;2023-06-22T07:51:04;33.30;52.10
31207;DHT22;17834;52.992;8.856;2023-06-22T07:53:31;33.30;52.80
31207;DHT22;17834;52.992;8.856;2023-06-22T07:55:56;33.10;52.40
31207;DHT22;17834;52.992;8.856;2023-06-22T07:58:22;32.30;53.70
31207;DHT22;17834;52.992;8.856;2023-06-22T08:00:47;31.40;55.50
31207;DHT22;17834;52.992;8.856;2023-06-22T08:03:14;29.90;56.50
31207;DHT22;17834;52.992;8.856;2023-06-22T08:05:40;29.10;60.00
31207;DHT22;17834;52.992;8.856;2023-06-22T08:08:05;28.30;62.90
31207;DHT22;17834;52.992;8.856;2023-06-22T08:10:31;27.70;63.50
31207;DHT22;17834;52.992;8.856;2023-06-22T08:12:57;27.40;64.10
31207;DHT22;17834;52.992;8.856;2023-06-22T08:15:22;26.80;64.70
31207;DHT22;17834;52.992;8.856;2023-06-22T08:17:47;26.20;66.10
31207;DHT22;17834;52.992;8.856;2023-06-22T08:20:13;26.10;68.20
31207;DHT22;17834;52.992;8.856;2023-06-22T08:22:42;25.90;67.70
31207;DHT22;17834;52.992;8.856;2023-06-22T08:25:08;25.70;68.40
31207;DHT22;17834;52.992;8.856;2023-06-22T08:27:34;25.60;68.80
31207;DHT22;17834;52.992;8.856;2023-06-22T08:30:01;25.70;68.60
31207;DHT22;17834;52.992;8.856;2023-06-22T08:32:29;25.80;68.30
31207;DHT22;17834;52.992;8.856;2023-06-22T08:34:56;25.90;68.60
31207;DHT22;17834;52.992;8.856;2023-06-22T08:37:22;26.00;68.20
31207;DHT22;17834;52.992;8.856;2023-06-22T08:39:50;26.00;68.30
31207;DHT22;17834;52.992;8.856;2023-06-22T08:42:15;26.00;69.00
31207;DHT22;17834;52.992;8.856;2023-06-22T08:44:41;26.10;70.40
31207;DHT22;17834;52.992;8.856;2023-06-22T08:47:07;26.30;70.00
31207;DHT22;17834;52.992;8.856;2023-06-22T08:49:32;26.40;69.00
31207;DHT22;17834;52.992;8.856;2023-06-22T08:51:58;26.40;68.30
31207;DHT22;17834;52.992;8.856;2023-06-22T08:54:23;26.50;68.70
31207;DHT22;17834;52.992;8.856;2023-06-22T08:56:49;26.40;69.50
31207;DHT22;17834;52.992;8.856;2023-06-22T08:59:14;26.50;70.10
31207;DHT22;17834;52.992;8.856;2023-06-22T09:01:40;26.40;69.10
31207;DHT22;17834;52.992;8.856;2023-06-22T09:04:05;26.50;69.40
31207;DHT22;17834;52.992;8.856;2023-06-22T09:06:32;26.50;68.80
31207;DHT22;17834;52.992;8.856;2023-06-22T09:08:58;26.30;68.00
31207;DHT22;17834;52.992;8.856;2023-06-22T09:11:26;26.30;69.10
31207;DHT22;17834;52.992;8.856;2023-06-22T09:13:52;26.40;69.40
31207;DHT22;17834;52.992;8.856;2023-06-22T09:16:19;26.60;68.90
31207;DHT22;17834;52.992;8.856;2023-06-22T09:18:47;26.70;70.20
31207;DHT22;17834;52.992;8.856;2023-06-22T09:21:13;27.00;69.50
31207;DHT22;17834;52.992;8.856;2023-06-22T09:23:38;27.10;68.20
31207;DHT22;17834;52.992;8.856;2023-06-22T09:26:04;27.30;69.80
31207;DHT22;17834;52.992;8.856;2023-06-22T09:28:30;27.40;68.30
31207;DHT22;17834;52.992;8.856;2023-06-22T09:30:55;27.40;67.40
31207;DHT22;17834;52.992;8.856;2023-06-22T09:33:23;27.20;68.90
31207;DHT22;17834;52.992;8.856;2023-06-22T09:35:49;27.00;67.80
31207;DHT22;17834;52.992;8.856;2023-06-22T09:38:16;27.00;69.90
31207;DHT22;17834;52.992;8.856;2023-06-22T09:40:41;27.20;70.30
31207;DHT22;17834;52.992;8.856;2023-06-22T09:43:07;27.30;68.60
31207;DHT22;17834;52.992;8.856;2023-06-22T09:45:32;27.30;67.40
31207;DHT22;17834;52.992;8.856;2023-06-22T09:47:58;27.20;68.40
31207;DHT22;17834;52.992;8.856;2023-06-22T09:50:23;27.10;68.40
31207;DHT22;17834;52.992;8.856;2023-06-22T09:52:49;26.90;69.00
31207;DHT22;17834;52.992;8.856;2023-06-22T09:55:22;27.00;70.60
31207;DHT22;17834;52.992;8.856;2023-06-22T09:57:48;27.00;70.00
31207;DHT22;17834;52.992;8.856;2023-06-22T10:00:16;26.90;70.60
31207;DHT22;17834;52.992;8.856;2023-06-22T10:02:42;26.90;70.90
31207;DHT22;17834;52.992;8.856;2023-06-22T10:05:08;26.90;71.20
31207;DHT22;17834;52.992;8.856;2023-06-22T10:07:34;26.90;71.90
31207;DHT22;17834;52.992;8.856;2023-06-22T10:09:59;26.90;72.10
31207;DHT22;17834;52.992;8.856;2023-06-22T10:12:26;27.00;71.70
31207;DHT22;17834;52.992;8.856;2023-06-22T10:14:52;27.10;71.00
31207;DHT22;17834;52.992;8.856;2023-06-22T10:17:18;27.30;69.40
31207;DHT22;17834;52.992;8.856;2023-06-22T10:19:43;27.70;70.60
31207;DHT22;17834;52.992;8.856;2023-06-22T10:22:09;27.90;70.10
31207;DHT22;17834;52.992;8.856;2023-06-22T10:24:34;28.10;69.00
31207;DHT22;17834;52.992;8.856;2023-06-22T10:27:00;28.20;69.40
31207;DHT22;17834;52.992;8.856;2023-06-22T10:29:25;28.10;68.10
31207;DHT22;17834;52.992;8.856;2023-06-22T10:31:51;28.10;67.80
31207;DHT22;17834;52.992;8.856;2023-06-22T10:34:16;28.10;68.20
31207;DHT22;17834;52.992;8.856;2023-06-22T10:36:42;27.80;68.30
31207;DHT22;17834;52.992;8.856;2023-06-22T10:39:07;27.60;68.40
31207;DHT22;17834;52.992;8.856;2023-06-22T10:41:35;27.60;69.00
31207;DHT22;17834;52.992;8.856;2023-06-22T10:44:00;27.70;70.10
31207;DHT22;17834;52.992;8.856;2023-06-22T10:46:26;27.90;69.30
31207;DHT22;17834;52.992;8.856;2023-06-22T10:48:52;27.90;68.20
31207;DHT22;17834;52.992;8.856;2023-06-22T10:51:20;28.10;68.80
31207;DHT22;17834;52.992;8.856;2023-06-22T10:53:46;28.20;68.30
31207;DHT22;17834;52.992;8.856;2023-06-22T10:56:11;28.40;68.10
31207;DHT22;17834;52.992;8.856;2023-06-22T10:58:37;28.60;67.70
31207;DHT22;17834;52.992;8.856;2023-06-22T11:01:02;28.80;69.00
31207;DHT22;17834;52.992;8.856;2023-06-22T11:03:28;28.80;67.40
31207;DHT22;17834;52.992;8.856;2023-06-22T11:05:54;29.00;67.70
31207;DHT22;17834;52.992;8.856;2023-06-22T11:08:19;29.00;67.10
31207;DHT22;17834;52.992;8.856;2023-06-22T11:10:45;29.10;66.60
31207;DHT22;17834;52.992;8.856;2023-06-22T11:13:10;29.30;66.40
31207;DHT22;17834;52.992;8.856;2023-06-22T11:15:36;29.40;65.60
31207;DHT22;17834;52.992;8.856;2023-06-22T11:18:02;29.30;65.00
31207;DHT22;17834;52.992;8.856;2023-06-22T11:20:27;29.10;65.80
31207;DHT22;17834;52.992;8.856;2023-06-22T11:22:53;29.30;67.00
31207;DHT22;17834;52.992;8.856;2023-06-22T11:25:18;29.20;66.30
31207;DHT22;17834;52.992;8.856;2023-06-22T11:27:45;29.00;66.20
31207;DHT22;17834;52.992;8.856;2023-06-22T11:30:10;28.90;66.50
31207;DHT22;17834;52.992;8.856;2023-06-22T11:32:36;28.90;67.60
31207;DHT22;17834;52.992;8.856;2023-06-22T11:35:02;28.70;67.10
31207;DHT22;17834;52.992;8.856;2023-06-22T11:37:27;28.60;68.20
31207;DHT22;17834;52.992;8.856;2023-06-22T11:39:53;28.40;68.70
31207;DHT22;17834;52.992;8.856;2023-06-22T11:42:20;28.60;68.10
31207;DHT22;17834;52.992;8.856;2023-06-22T11:44:45;28.60;67.20
31207;DHT22;17834;52.992;8.856;2023-06-22T11:47:11;28.60;68.10
31207;DHT22;17834;52.992;8.856;2023-06-22T11:49:36;28.60;67.50
31207;DHT22;17834;52.992;8.856;2023-06-22T11:52:02;28.50;66.90
31207;DHT22;17834;52.992;8.856;2023-06-22T11:54:28;28.40;67.80
31207;DHT22;17834;52.992;8.856;2023-06-22T11:56:53;28.40;67.70
31207;DHT22;17834;52.992;8.856;2023-06-22T11:59:19;28.50;67.20
31207;DHT22;17834;52.992;8.856;2023-06-22T12:01:44;28.60;68.50
31207;DHT22;17834;52.992;8.856;2023-06-22T12:04:10;28.80;69.00
31207;DHT22;17834;52.992;8.856;2023-06-22T12:06:38;28.80;67.10
31207;DHT22;17834;52.992;8.856;2023-06-22T12:09:04;28.80;67.90
31207;DHT22;17834;52.992;8.856;2023-06-22T12:11:30;28.80;67.60
31207;DHT22;17834;52.992;8.856;2023-06-22T12:13:55;28.80;67.90
31207;DHT22;17834;52.992;8.856;2023-06-22T12:16:21;28.80;67.60
31207;DHT22;17834;52.992;8.856;2023-06-22T12:18:47;28.80;67.50
31207;DHT22;17834;52.992;8.856;2023-06-22T12:21:12;28.70;66.70
31207;DHT22;17834;52.992;8.856;2023-06-22T12:23:38;28.90;67.70
31207;DHT22;17834;52.992;8.856;2023-06-22T12:26:03;28.80;66.90
31207;DHT22;17834;52.992;8.856;2023-06-22T12:28:29;28.90;68.10
31207;DHT22;17834;52.992;8.856;2023-06-22T12:30:54;29.00;67.90
31207;DHT22;17834;52.992;8.856;2023-06-22T12:33:20;29.00;66.50
31207;DHT22;17834;52.992;8.856;2023-06-22T12:35:45;29.10;67.70
31207;DHT22;17834;52.992;8.856;2023-06-22T12:38:14;29.30;68.40
31207;DHT22;17834;52.992;8.856;2023-06-22T12:40:39;29.30;67.00
31207;DHT22;17834;52.992;8.856;2023-06-22T12:43:05;29.40;67.20
31207;DHT22;17834;52.992;8.856;2023-06-22T12:45:30;29.40;67.70
31207;DHT22;17834;52.992;8.856;2023-06-22T12:47:57;29.30;66.90
31207;DHT22;17834;52.992;8.856;2023-06-22T12:50:22;29.10;67.40
31207;DHT22;17834;52.992;8.856;2023-06-22T12:52:48;28.90;65.80
31207;DHT22;17834;52.992;8.856;2023-06-22T12:55:13;28.70;66.00
31207;DHT22;17834;52.992;8.856;2023-06-22T12:57:39;28.60;66.60
31207;DHT22;17834;52.992;8.856;2023-06-22T13:00:05;28.60;67.10
31207;DHT22;17834;52.992;8.856;2023-06-22T13:02:32;28.80;67.40
31207;DHT22;17834;52.992;8.856;2023-06-22T13:04:58;28.70;66.50
31207;DHT22;17834;52.992;8.856;2023-06-22T13:07:23;28.80;67.00
31207;DHT22;17834;52.992;8.856;2023-06-22T13:09:49;28.90;67.20
31207;DHT22;17834;52.992;8.856;2023-06-22T13:12:17;28.90;67.40
31207;DHT22;17834;52.992;8.856;2023-06-22T13:14:42;28.90;66.90
31207;DHT22;17834;52.992;8.856;2023-06-22T13:17:08;29.00;66.80
31207;DHT22;17834;52.992;8.856;2023-06-22T13:19:34;28.90;67.70
31207;DHT22;17834;52.992;8.856;2023-06-22T13:21:59;29.00;67.90
31207;DHT22;17834;52.992;8.856;2023-06-22T13:24:25;29.00;67.60
31207;DHT22;17834;52.992;8.856;2023-06-22T13:26:51;29.00;67.40
31207;DHT22;17834;52.992;8.856;2023-06-22T13:29:16;29.10;68.20
31207;DHT22;17834;52.992;8.856;2023-06-22T13:31:42;29.00;67.70
31207;DHT22;17834;52.992;8.856;2023-06-22T13:34:07;28.80;68.40
31207;DHT22;17834;52.992;8.856;2023-06-22T13:36:32;28.70;68.00
31207;DHT22;17834;52.992;8.856;2023-06-22T13:38:58;28.70;69.00
31207;DHT22;17834;52.992;8.856;2023-06-22T13:41:24;28.50;68.80
31207;DHT22;17834;52.992;8.856;2023-06-22T13:43:49;28.30;69.10
31207;DHT22;17834;52.992;8.856;2023-06-22T13:46:15;28.10;70.00
31207;DHT22;17834;52.992;8.856;2023-06-22T13:48:40;27.90;70.30
31207;DHT22;17834;52.992;8.856;2023-06-22T13:51:05;27.70;71.40
31207;DHT22;17834;52.992;8.856;2023-06-22T13:53:31;27.60;71.60
31207;DHT22;17834;52.992;8.856;2023-06-22T13:55:57;27.50;72.40
31207;DHT22;17834;52.992;8.856;2023-06-22T13:58:23;27.30;73.10
31207;DHT22;17834;52.992;8.856;2023-06-22T14:00:48;27.20;73.20
31207;DHT22;17834;52.992;8.856;2023-06-22T14:03:14;27.10;73.10
31207;DHT22;17834;52.992;8.856;2023-06-22T14:05:42;27.00;73.60
31207;DHT22;17834;52.992;8.856;2023-06-22T14:08:08;26.90;73.30
31207;DHT22;17834;52.992;8.856;2023-06-22T14:10:34;26.80;73.90
31207;DHT22;17834;52.992;8.856;2023-06-22T14:13:00;26.70;75.00
31207;DHT22;17834;52.992;8.856;2023-06-22T14:15:26;26.60;74.80
31207;DHT22;17834;52.992;8.856;2023-06-22T14:17:52;26.60;75.10
31207;DHT22;17834;52.992;8.856;2023-06-22T14:20:18;26.50;75.70
31207;DHT22;17834;52.992;8.856;2023-06-22T14:22:43;26.40;76.00
31207;DHT22;17834;52.992;8.856;2023-06-22T14:25:09;26.40;76.20
31207;DHT22;17834;52.992;8.856;2023-06-22T14:27:34;26.40;76.80
31207;DHT22;17834;52.992;8.856;2023-06-22T14:30:00;26.30;76.80
31207;DHT22;17834;52.992;8.856;2023-06-22T14:32:27;26.30;77.60
31207;DHT22;17834;52.992;8.856;2023-06-22T14:34:55;26.30;77.90
31207;DHT22;17834;52.992;8.856;2023-06-22T14:37:20;26.10;78.00
31207;DHT22;17834;52.992;8.856;2023-06-22T14:39:45;26.00;77.90
31207;DHT22;17834;52.992;8.856;2023-06-22T14:42:11;26.00;78.00
31207;DHT22;17834;52.992;8.856;2023-06-22T14:44:36;25.90;78.20
31207;DHT22;17834;52.992;8.856;2023-06-22T14:47:02;25.80;78.40
31207;DHT22;17834;52.992;8.856;2023-06-22T14:49:27;25.80;79.30
31207;DHT22;17834;52.992;8.856;2023-06-22T14:51:53;25.70;79.50
31207;DHT22;17834;52.992;8.856;2023-06-22T14:54:18;25.70;81.00
31207;DHT22;17834;52.992;8.856;2023-06-22T14:56:44;25.60;81.70
31207;DHT22;17834;52.992;8.856;2023-06-22T14:59:09;25.60;83.40
31207;DHT22;17834;52.992;8.856;2023-06-22T15:01:35;25.50;85.60
31207;DHT22;17834;52.992;8.856;2023-06-22T15:04:01;25.40;88.70
31207;DHT22;17834;52.992;8.856;2023-06-22T15:06:26;25.20;91.60
31207;DHT22;17834;52.992;8.856;2023-06-22T15:08:52;25.10;95.70
31207;DHT22;17834;52.992;8.856;2023-06-22T15:11:18;25.00;99.60
31207;DHT22;17834;52.992;8.856;2023-06-22T15:13:43;24.80;99.90
31207;DHT22;17834;52.992;8.856;2023-06-22T15:16:09;24.50;99.90
31207;DHT22;17834;52.992;8.856;2023-06-22T15:18:35;24.30;99.90
31207;DHT22;17834;52.992;8.856;2023-06-22T15:21:02;24.10;99.90
31207;DHT22;17834;52.992;8.856;2023-06-22T15:23:29;23.80;99.90
31207;DHT22;17834;52.992;8.856;2023-06-22T15:25:55;23.60;99.90
31207;DHT22;17834;52.992;8.856;2023-06-22T15:28:21;23.40;99.90
31207;DHT22;17834;52.992;8.856;2023-06-22T15:30:48;23.30;99.90